< < Back
Terminal Aerodrome Forecast


Current Version              Previous Versions:   1  2  3  4  5  6  7  8  9  

Terminal Aerodrome Forecast

916
FTUS44 KMOB 011800 AAA
TAFMOB
TAF AMD
KMOB 011808Z 0118/0218 VRB03KT P6SM BKN040
     FM020600 12003KT 5SM BR BKN015=

Latest METAR

856
SAUS80 KWBC 011800 RRI
MTRMOB
METAR KMOB 011756Z 00000KT 10SM BKN035 BKN042 BKN200 28/21 A2997 RMK AO2
SLP145 T02780206 10283 20183 58003


USA.gov is the U.S. government's official web portal to all federal, state and local government web resources and services.